createdAt,value
2022-08-17T00:01:07.895Z,8.03
2022-08-17T00:03:38.748Z,8.81
2022-08-17T00:06:06.019Z,7.81
2022-08-17T00:08:33.296Z,7.78
2022-08-17T00:11:00.590Z,7.55
2022-08-17T00:13:27.875Z,7.87
2022-08-17T00:15:55.140Z,7.85
2022-08-17T00:19:04.185Z,7.58
2022-08-17T00:21:11.663Z,7.61
2022-08-17T00:23:38.942Z,8.00
2022-08-17T00:26:11.806Z,7.66
2022-08-17T00:28:39.103Z,8.06
2022-08-17T00:31:06.384Z,8.00
2022-08-17T00:33:33.662Z,8.10
2022-08-17T00:36:00.952Z,8.30
2022-08-17T00:38:28.225Z,8.13
2022-08-17T00:40:59.327Z,8.75
2022-08-17T00:43:26.739Z,9.09
2022-08-17T00:45:54.007Z,9.10
2022-08-17T00:48:26.195Z,8.93
2022-08-17T00:50:57.597Z,8.84
2022-08-17T00:53:24.892Z,8.98
2022-08-17T00:55:52.180Z,8.84
2022-08-17T00:58:20.388Z,8.86
2022-08-17T01:01:03.328Z,8.70
2022-08-17T01:03:30.648Z,8.94
2022-08-17T01:05:57.931Z,9.22
2022-08-17T01:08:25.490Z,8.93
2022-08-17T01:11:00.789Z,8.80
2022-08-17T01:13:28.970Z,8.96
2022-08-17T01:15:56.274Z,9.22
2022-08-17T01:18:23.567Z,8.87
2022-08-17T01:20:50.840Z,8.58
2022-08-17T01:23:20.509Z,8.36
2022-08-17T01:25:48.732Z,8.80
2022-08-17T01:28:52.568Z,8.69
2022-08-17T01:31:05.694Z,9.01
2022-08-17T01:33:32.983Z,9.15
2022-08-17T01:36:00.248Z,9.03
2022-08-17T01:38:27.554Z,8.91
2022-08-17T01:40:57.503Z,9.08
2022-08-17T01:43:25.092Z,9.17
2022-08-17T01:46:03.381Z,9.55
2022-08-17T01:48:31.214Z,9.13
2022-08-17T01:50:58.474Z,9.46
2022-08-17T01:53:26.541Z,9.72
2022-08-17T01:55:53.833Z,9.63
2022-08-17T01:58:21.139Z,9.64
2022-08-17T02:00:48.418Z,9.59
2022-08-17T02:03:27.655Z,9.62
2022-08-17T02:05:54.945Z,10.01
2022-08-17T02:08:38.824Z,9.93
2022-08-17T02:11:11.337Z,9.99
2022-08-17T02:13:39.116Z,10.16
2022-08-17T02:16:06.419Z,10.49
2022-08-17T02:18:33.719Z,10.25
2022-08-17T02:21:01.007Z,10.33
2022-08-17T02:23:28.291Z,10.93
2022-08-17T02:25:55.581Z,11.04
2022-08-17T02:28:22.874Z,11.31
2022-08-17T02:31:00.993Z,12.09
2022-08-17T02:33:37.292Z,12.21
2022-08-17T02:36:10.687Z,12.19
2022-08-17T02:38:37.984Z,12.26
2022-08-17T02:41:05.265Z,12.38
2022-08-17T02:43:32.566Z,12.91
2022-08-17T02:45:59.851Z,13.31
2022-08-17T02:48:31.280Z,13.35
2022-08-17T02:50:59.214Z,12.18
2022-08-17T02:53:26.507Z,11.32
2022-08-17T02:55:53.820Z,9.78
2022-08-17T02:58:34.382Z,9.10
2022-08-17T03:01:03.179Z,8.74
2022-08-17T03:03:30.463Z,9.38
2022-08-17T03:05:57.744Z,10.01
2022-08-17T03:08:25.058Z,10.27
2022-08-17T03:10:52.348Z,9.68
2022-08-17T03:13:19.736Z,9.92
2022-08-17T03:15:47.015Z,9.68
2022-08-17T03:18:24.663Z,9.38
2022-08-17T03:20:53.140Z,9.79
2022-08-17T03:23:23.847Z,9.59
2022-08-17T03:25:53.113Z,9.73
2022-08-17T03:28:20.912Z,9.59
2022-08-17T03:30:48.238Z,9.92
2022-08-17T03:33:15.556Z,9.79
2022-08-17T03:35:42.854Z,9.69
2022-08-17T03:38:10.167Z,10.01
2022-08-17T03:40:58.931Z,9.82
2022-08-17T03:43:24.705Z,9.37
2022-08-17T03:45:51.986Z,9.09
2022-08-17T03:48:20.761Z,8.61
2022-08-17T03:50:48.061Z,9.79
2022-08-17T03:53:15.341Z,9.86
2022-08-17T03:55:42.618Z,9.42
2022-08-17T03:58:09.916Z,9.52
2022-08-17T04:00:39.695Z,9.36
2022-08-17T04:03:07.150Z,9.08
2022-08-17T04:05:36.348Z,10.04
2022-08-17T04:08:03.626Z,10.48
2022-08-17T04:10:33.968Z,10.37
2022-08-17T04:13:12.497Z,10.36
2022-08-17T04:15:39.814Z,10.40
2022-08-17T04:18:07.583Z,10.85
2022-08-17T04:20:38.371Z,10.71
2022-08-17T04:23:05.649Z,10.53
2022-08-17T04:25:32.926Z,11.16
2022-08-17T04:28:00.233Z,10.69
2022-08-17T04:30:27.507Z,10.96
2022-08-17T04:33:00.786Z,10.86
2022-08-17T04:35:32.962Z,10.48
2022-08-17T04:38:00.294Z,10.56
2022-08-17T04:40:27.638Z,10.23
2022-08-17T04:43:00.171Z,10.24
2022-08-17T04:45:32.079Z,10.25
2022-08-17T04:47:59.862Z,10.30
2022-08-17T04:50:27.166Z,10.41
2022-08-17T04:52:54.619Z,10.95
2022-08-17T04:55:22.122Z,10.58
2022-08-17T04:57:49.436Z,10.96
2022-08-17T05:00:16.717Z,10.73
2022-08-17T05:02:49.587Z,10.62
2022-08-17T05:05:19.746Z,10.50
2022-08-17T05:07:48.133Z,10.20
2022-08-17T05:10:15.420Z,10.01
2022-08-17T05:12:42.758Z,10.34
2022-08-17T05:15:10.082Z,10.27
2022-08-17T05:17:37.360Z,10.22
2022-08-17T05:20:04.665Z,10.45
2022-08-17T05:22:31.975Z,10.39
2022-08-17T05:24:59.252Z,10.94
2022-08-17T05:27:35.145Z,10.68
2022-08-17T05:30:03.284Z,10.92
2022-08-17T05:32:38.805Z,11.53
2022-08-17T05:35:07.547Z,11.31
2022-08-17T05:37:34.820Z,11.37
2022-08-17T05:40:02.159Z,10.84
2022-08-17T05:42:29.542Z,12.40
2022-08-17T05:44:56.820Z,11.66
2022-08-17T05:47:24.122Z,12.32
2022-08-17T05:49:51.433Z,12.60
2022-08-17T05:52:21.215Z,13.14
2022-08-17T05:54:48.510Z,12.56
2022-08-17T05:57:15.815Z,12.43
2022-08-17T05:59:43.318Z,12.01
2022-08-17T06:02:10.592Z,12.31
2022-08-17T06:04:37.919Z,12.39
2022-08-17T06:07:05.206Z,12.36
2022-08-17T06:09:33.995Z,12.46
2022-08-17T06:12:01.462Z,13.24
2022-08-17T06:14:29.817Z,13.02
2022-08-17T06:16:57.119Z,13.06
2022-08-17T06:19:24.435Z,13.26
2022-08-17T06:21:51.736Z,12.76
2022-08-17T06:24:19.028Z,13.21
2022-08-17T06:26:46.619Z,13.17
2022-08-17T06:29:18.737Z,12.69
2022-08-17T06:31:46.404Z,12.66
2022-08-17T06:34:15.781Z,13.06
2022-08-17T06:36:43.076Z,13.07
2022-08-17T06:39:10.386Z,12.52
2022-08-17T06:41:38.096Z,12.72
2022-08-17T06:44:05.485Z,12.64
2022-08-17T06:46:32.773Z,12.75
2022-08-17T06:49:00.082Z,12.87
2022-08-17T06:51:27.382Z,13.33
2022-08-17T06:53:54.694Z,13.48
2022-08-17T06:56:21.999Z,12.17
2022-08-17T06:58:49.305Z,11.93
2022-08-17T07:01:16.696Z,12.56
2022-08-17T07:03:44.052Z,12.87
2022-08-17T07:06:11.355Z,13.23
2022-08-17T07:08:38.677Z,13.64
2022-08-17T07:11:06.002Z,13.25
2022-08-17T07:13:33.294Z,13.63
2022-08-17T07:16:00.578Z,14.00
2022-08-17T07:18:27.896Z,14.43
2022-08-17T07:20:56.282Z,14.35
2022-08-17T07:23:23.611Z,14.80
2022-08-17T07:25:50.897Z,14.51
2022-08-17T07:28:18.214Z,14.45
2022-08-17T07:30:47.314Z,15.15
2022-08-17T07:33:15.243Z,14.88
2022-08-17T07:35:44.247Z,14.48
2022-08-17T07:38:24.989Z,14.72
2022-08-17T07:40:53.866Z,14.75
2022-08-17T07:43:23.184Z,14.39
2022-08-17T07:45:50.965Z,14.43
2022-08-17T07:48:18.256Z,13.55
2022-08-17T07:50:49.572Z,11.78
2022-08-17T07:53:18.047Z,10.35
2022-08-17T07:55:45.354Z,10.48
2022-08-17T07:58:12.643Z,9.93
2022-08-17T08:00:39.924Z,9.70
2022-08-17T08:03:07.228Z,9.21
2022-08-17T08:05:50.376Z,9.85
2022-08-17T08:08:18.196Z,8.98
2022-08-17T08:10:45.628Z,8.64
2022-08-17T08:13:14.240Z,7.98
2022-08-17T08:15:44.982Z,8.16
2022-08-17T08:18:45.916Z,7.66
2022-08-17T08:21:08.519Z,7.85
2022-08-17T08:23:35.802Z,11.11
2022-08-17T08:26:03.085Z,10.12
2022-08-17T08:28:30.404Z,10.02
2022-08-17T08:30:57.690Z,10.64
2022-08-17T08:33:24.976Z,11.28
2022-08-17T08:35:52.290Z,11.29
2022-08-17T08:38:21.528Z,11.24
2022-08-17T08:40:48.810Z,11.87
2022-08-17T08:43:16.326Z,10.99
2022-08-17T08:45:43.608Z,10.78
2022-08-17T08:48:12.821Z,11.71
2022-08-17T08:50:58.124Z,12.03
2022-08-17T08:53:25.956Z,12.26
2022-08-17T08:55:53.242Z,11.94
2022-08-17T08:58:31.802Z,11.55
2022-08-17T09:01:07.832Z,11.02
2022-08-17T09:03:52.907Z,10.56
2022-08-17T09:06:32.577Z,10.67
2022-08-17T09:09:06.927Z,9.35
2022-08-17T09:11:34.225Z,9.57
2022-08-17T09:14:28.194Z,9.88
2022-08-17T09:16:56.144Z,9.59
2022-08-17T09:19:25.368Z,8.71
2022-08-17T09:21:52.637Z,8.09
2022-08-17T09:24:20.680Z,8.02
2022-08-17T09:26:48.280Z,8.33
2022-08-17T09:29:15.550Z,8.84
2022-08-17T09:31:48.849Z,8.76
2022-08-17T09:34:16.858Z,8.22
2022-08-17T09:36:44.144Z,8.65
2022-08-17T09:39:11.423Z,8.92
2022-08-17T09:41:38.679Z,9.09
2022-08-17T09:44:23.110Z,8.47
2022-08-17T09:46:50.814Z,8.80
2022-08-17T09:49:20.715Z,8.39
2022-08-17T09:51:51.964Z,9.03
2022-08-17T09:54:38.009Z,7.80
2022-08-17T09:57:28.754Z,8.35
2022-08-17T09:59:53.709Z,8.51
2022-08-17T10:02:20.995Z,8.67
2022-08-17T10:04:48.395Z,8.46
2022-08-17T10:07:15.678Z,8.20
2022-08-17T10:09:42.956Z,8.09
2022-08-17T10:12:10.251Z,8.99
2022-08-17T10:14:44.435Z,8.73
2022-08-17T10:17:11.954Z,9.34
2022-08-17T10:19:39.257Z,9.52
2022-08-17T10:22:32.376Z,9.46
2022-08-17T10:25:21.129Z,9.27
2022-08-17T10:27:45.849Z,9.26
2022-08-17T10:30:13.178Z,9.46
2022-08-17T10:32:41.602Z,9.39
2022-08-17T10:35:08.904Z,8.94
2022-08-17T10:37:36.183Z,9.69
2022-08-17T10:40:03.495Z,9.55
2022-08-17T10:42:32.965Z,9.92
2022-08-17T10:45:00.590Z,10.08
2022-08-17T10:47:27.876Z,9.67
2022-08-17T10:49:55.270Z,9.23
2022-08-17T10:52:25.076Z,9.82
2022-08-17T10:54:58.344Z,9.77
2022-08-17T10:57:26.120Z,10.15
2022-08-17T10:59:53.412Z,9.86
2022-08-17T11:02:20.692Z,9.48
2022-08-17T11:04:47.992Z,9.45
2022-08-17T11:07:15.271Z,9.78
2022-08-17T11:09:42.559Z,9.34
2022-08-17T11:12:09.855Z,9.35
2022-08-17T11:14:37.153Z,9.46
2022-08-17T11:17:04.438Z,9.61
2022-08-17T11:19:31.890Z,9.29
2022-08-17T11:21:59.173Z,9.08
2022-08-17T11:24:26.445Z,9.70
2022-08-17T11:26:53.737Z,9.43
2022-08-17T11:29:21.017Z,8.83
2022-08-17T11:31:51.977Z,9.42
2022-08-17T11:34:21.505Z,9.06
2022-08-17T11:36:48.774Z,8.96
2022-08-17T11:39:16.050Z,8.68
2022-08-17T11:41:43.366Z,9.21
2022-08-17T11:44:10.653Z,9.47
2022-08-17T11:46:37.938Z,9.16
2022-08-17T11:49:08.826Z,8.48
2022-08-17T11:51:36.476Z,8.80
2022-08-17T11:54:31.196Z,9.63
2022-08-17T11:56:51.000Z,9.37
2022-08-17T11:59:18.285Z,10.12
2022-08-17T12:01:45.569Z,9.52
2022-08-17T12:04:12.888Z,8.84
2022-08-17T12:06:40.191Z,9.38
2022-08-17T12:09:07.456Z,9.35
2022-08-17T12:12:11.010Z,9.48
2022-08-17T12:14:29.409Z,9.46
2022-08-17T12:17:07.312Z,8.87
2022-08-17T12:19:36.129Z,9.03
2022-08-17T12:22:03.392Z,9.04
2022-08-17T12:24:30.689Z,9.13
2022-08-17T12:26:57.969Z,8.84
2022-08-17T12:29:35.439Z,8.72
2022-08-17T12:32:06.305Z,8.74
2022-08-17T12:34:33.586Z,9.21
2022-08-17T12:37:00.871Z,8.97
2022-08-17T12:39:28.211Z,8.80
2022-08-17T12:42:02.712Z,8.68
2022-08-17T12:44:30.274Z,9.08
2022-08-17T12:46:57.571Z,9.00
2022-08-17T12:49:24.843Z,8.67
2022-08-17T12:51:52.140Z,8.68
2022-08-17T12:54:19.403Z,8.47
2022-08-17T12:56:47.667Z,8.66
2022-08-17T12:59:14.995Z,8.82
2022-08-17T13:01:56.945Z,8.75
2022-08-17T13:04:24.585Z,8.69
2022-08-17T13:07:00.007Z,8.73
2022-08-17T13:09:35.399Z,8.34
2022-08-17T13:12:03.429Z,8.63
2022-08-17T13:14:33.330Z,8.36
2022-08-17T13:17:01.429Z,8.67
2022-08-17T13:19:29.838Z,8.95
2022-08-17T13:22:07.948Z,8.59
2022-08-17T13:24:38.241Z,8.89
2022-08-17T13:27:08.020Z,8.08
2022-08-17T13:29:35.651Z,8.46
2022-08-17T13:32:05.007Z,8.73
2022-08-17T13:34:33.302Z,8.83
2022-08-17T13:37:00.777Z,9.14
2022-08-17T13:39:33.840Z,9.02
2022-08-17T13:42:01.153Z,8.80
2022-08-17T13:44:28.433Z,8.99
2022-08-17T13:46:57.235Z,8.97
2022-08-17T13:49:24.787Z,8.65
2022-08-17T13:52:09.292Z,9.09
2022-08-17T13:54:37.655Z,8.99
2022-08-17T13:57:04.934Z,8.60
2022-08-17T13:59:52.749Z,8.87
2022-08-17T14:02:19.572Z,8.90
2022-08-17T14:04:46.857Z,8.76
2022-08-17T14:07:14.116Z,8.42
2022-08-17T14:09:41.411Z,8.61
2022-08-17T14:12:08.693Z,8.82
2022-08-17T14:14:36.001Z,8.65
2022-08-17T14:17:03.281Z,8.95
2022-08-17T14:19:30.548Z,8.89
2022-08-17T14:21:57.850Z,8.52
2022-08-17T14:24:25.123Z,8.63
2022-08-17T14:26:52.403Z,8.58
2022-08-17T14:29:19.702Z,8.56
2022-08-17T14:31:53.384Z,8.35
2022-08-17T14:34:21.874Z,8.04
2022-08-17T14:36:49.157Z,8.50
2022-08-17T14:39:16.488Z,7.74
2022-08-17T14:41:43.772Z,8.16
2022-08-17T14:44:13.008Z,7.98
2022-08-17T14:46:40.394Z,8.22
2022-08-17T14:49:07.672Z,7.62
2022-08-17T14:51:35.616Z,7.72
2022-08-17T14:54:10.842Z,7.79
2022-08-17T14:56:38.233Z,7.95
2022-08-17T14:59:05.544Z,7.68
2022-08-17T15:01:32.882Z,8.02
2022-08-17T15:04:00.185Z,7.61
2022-08-17T15:06:27.481Z,7.69
2022-08-17T15:08:54.749Z,7.17
2022-08-17T15:11:22.067Z,7.68
2022-08-17T15:13:52.355Z,7.62
2022-08-17T15:16:20.444Z,7.71
2022-08-17T15:18:47.711Z,7.51
2022-08-17T15:21:14.990Z,7.67
2022-08-17T15:23:43.565Z,7.71
2022-08-17T15:26:10.953Z,7.19
2022-08-17T15:28:38.251Z,7.53
2022-08-17T15:31:05.533Z,7.71
2022-08-17T15:33:32.840Z,7.50
2022-08-17T15:36:00.115Z,7.53
2022-08-17T15:38:27.391Z,7.61
2022-08-17T15:40:54.681Z,7.60
2022-08-17T15:43:27.057Z,7.50
2022-08-17T15:45:59.608Z,8.01
2022-08-17T15:48:27.417Z,7.73
2022-08-17T15:50:54.688Z,7.67
2022-08-17T15:53:21.964Z,8.38
2022-08-17T15:55:49.248Z,8.42
2022-08-17T15:58:19.280Z,8.49
2022-08-17T16:00:49.422Z,8.12
2022-08-17T16:04:04.778Z,8.13
2022-08-17T16:06:08.103Z,8.71
2022-08-17T16:08:39.020Z,8.21
2022-08-17T16:11:06.284Z,8.24
2022-08-17T16:13:33.560Z,8.66
2022-08-17T16:16:00.907Z,8.56
2022-08-17T16:18:28.198Z,8.49
2022-08-17T16:20:55.501Z,8.07
2022-08-17T16:23:22.886Z,8.60
2022-08-17T16:25:52.919Z,8.77
2022-08-17T16:28:21.307Z,8.52
2022-08-17T16:30:48.618Z,9.17
2022-08-17T16:33:15.888Z,10.38
2022-08-17T16:35:43.160Z,10.86
2022-08-17T16:38:10.473Z,10.97
2022-08-17T16:40:37.747Z,11.31
2022-08-17T16:43:05.031Z,10.98
2022-08-17T16:45:32.356Z,11.57
2022-08-17T16:47:59.643Z,11.25
2022-08-17T16:50:26.939Z,10.60
2022-08-17T16:52:54.230Z,9.05
2022-08-17T16:55:21.508Z,8.92
2022-08-17T16:57:50.587Z,9.74
2022-08-17T17:00:18.186Z,8.99
2022-08-17T17:02:45.489Z,8.24
2022-08-17T17:05:12.755Z,8.28
2022-08-17T17:07:40.043Z,8.80
2022-08-17T17:10:07.320Z,8.51
2022-08-17T17:13:03.791Z,8.59
2022-08-17T17:15:22.371Z,8.62
2022-08-17T17:17:49.863Z,8.57
2022-08-17T17:20:17.211Z,8.41
2022-08-17T17:22:44.513Z,8.74
2022-08-17T17:25:11.881Z,7.94
2022-08-17T17:27:39.191Z,7.82
2022-08-17T17:30:06.478Z,7.85
2022-08-17T17:32:33.750Z,8.78
2022-08-17T17:35:01.047Z,8.58
2022-08-17T17:37:28.324Z,7.97
2022-08-17T17:39:55.683Z,8.44
2022-08-17T17:42:22.981Z,8.28
2022-08-17T17:44:50.266Z,7.88
2022-08-17T17:47:17.543Z,8.09
2022-08-17T17:49:44.832Z,7.76
2022-08-17T17:52:16.780Z,7.59
2022-08-17T17:54:46.347Z,7.88
2022-08-17T17:57:13.619Z,7.39
2022-08-17T17:59:44.030Z,7.78
2022-08-17T18:02:11.690Z,7.52
2022-08-17T18:04:39.005Z,7.22
2022-08-17T18:07:06.307Z,6.85
2022-08-17T18:09:37.435Z,6.50
2022-08-17T18:12:06.734Z,6.95
2022-08-17T18:14:34.148Z,7.04
2022-08-17T18:17:01.450Z,6.51
2022-08-17T18:19:28.833Z,6.63
2022-08-17T18:21:58.083Z,6.71
2022-08-17T18:24:25.360Z,6.43
2022-08-17T18:26:52.645Z,6.43
2022-08-17T18:29:22.425Z,6.10
2022-08-17T18:31:49.689Z,6.65
2022-08-17T18:34:45.506Z,5.85
2022-08-17T18:37:04.228Z,5.69
2022-08-17T18:39:31.546Z,5.45
2022-08-17T18:41:58.846Z,5.68
2022-08-17T18:44:26.138Z,5.22
2022-08-17T18:46:53.420Z,5.00
2022-08-17T18:49:20.695Z,4.87
2022-08-17T18:51:48.000Z,5.18
2022-08-17T18:54:15.265Z,5.44
2022-08-17T18:56:42.546Z,4.82
2022-08-17T18:59:09.847Z,5.12
2022-08-17T19:01:41.752Z,5.14
2022-08-17T19:04:21.109Z,5.25
2022-08-17T19:06:48.490Z,5.66
2022-08-17T19:09:15.831Z,6.19
2022-08-17T19:11:43.139Z,6.32
2022-08-17T19:14:10.445Z,6.43
2022-08-17T19:16:37.720Z,6.45
2022-08-17T19:19:04.988Z,6.44
2022-08-17T19:21:32.302Z,5.89
2022-08-17T19:23:59.582Z,6.39
2022-08-17T19:26:54.283Z,6.39
2022-08-17T19:29:14.106Z,6.17
2022-08-17T19:31:41.393Z,6.21
2022-08-17T19:34:08.681Z,6.23
2022-08-17T19:36:35.977Z,6.35
2022-08-17T19:39:03.371Z,6.39
2022-08-17T19:41:32.608Z,5.91
2022-08-17T19:43:59.880Z,6.37
2022-08-17T19:46:27.179Z,6.64
2022-08-17T19:48:54.450Z,6.18
2022-08-17T19:51:21.772Z,6.32
2022-08-17T19:54:05.075Z,6.49
2022-08-17T19:56:33.031Z,6.14
2022-08-17T19:59:00.304Z,6.13
2022-08-17T20:01:33.944Z,6.05
2022-08-17T20:04:01.948Z,6.00
2022-08-17T20:06:29.240Z,5.75
2022-08-17T20:08:56.527Z,5.76
2022-08-17T20:11:23.816Z,5.70
2022-08-17T20:13:51.086Z,5.58
2022-08-17T20:16:18.362Z,5.63
2022-08-17T20:18:47.443Z,5.58
2022-08-17T20:21:20.374Z,5.57
2022-08-17T20:23:47.896Z,5.04
2022-08-17T20:26:19.072Z,5.60
2022-08-17T20:28:46.772Z,5.71
2022-08-17T20:31:14.157Z,5.32
2022-08-17T20:33:41.439Z,5.30
2022-08-17T20:36:08.714Z,5.01
2022-08-17T20:38:36.020Z,5.09
2022-08-17T20:41:03.310Z,5.11
2022-08-17T20:43:30.919Z,4.86
2022-08-17T20:45:58.223Z,4.65
2022-08-17T20:48:37.961Z,4.83
2022-08-17T20:51:06.135Z,4.80
2022-08-17T20:53:33.417Z,4.96
2022-08-17T20:56:00.684Z,4.97
2022-08-17T20:58:30.817Z,5.15
2022-08-17T21:00:58.712Z,4.86
2022-08-17T21:03:26.137Z,5.13
2022-08-17T21:05:53.410Z,5.12
2022-08-17T21:08:27.470Z,4.94
2022-08-17T21:10:54.746Z,5.20
2022-08-17T21:13:22.027Z,5.10
2022-08-17T21:15:51.332Z,5.15
2022-08-17T21:18:18.612Z,5.35
2022-08-17T21:20:45.880Z,5.12
2022-08-17T21:23:13.167Z,5.20
2022-08-17T21:25:40.474Z,5.60
2022-08-17T21:28:07.748Z,5.48
2022-08-17T21:30:37.927Z,5.56
2022-08-17T21:33:07.455Z,5.52
2022-08-17T21:35:38.937Z,5.50
2022-08-17T21:38:06.364Z,5.75
2022-08-17T21:40:33.810Z,5.90
2022-08-17T21:43:01.094Z,5.80
2022-08-17T21:45:28.365Z,5.51
2022-08-17T21:47:55.761Z,5.76
2022-08-17T21:50:23.040Z,5.84
2022-08-17T21:52:50.353Z,6.03
2022-08-17T21:55:17.646Z,5.43
2022-08-17T21:57:52.902Z,5.89
2022-08-17T22:00:32.170Z,5.98
2022-08-17T22:02:59.436Z,5.79
2022-08-17T22:05:26.709Z,5.48
2022-08-17T22:07:54.759Z,6.30
2022-08-17T22:10:22.038Z,6.11
2022-08-17T22:12:49.315Z,6.31
2022-08-17T22:15:16.619Z,6.45
2022-08-17T22:17:44.026Z,6.76
2022-08-17T22:20:11.354Z,6.69
2022-08-17T22:22:38.656Z,6.50
2022-08-17T22:25:05.950Z,6.57
2022-08-17T22:27:33.229Z,6.53
2022-08-17T22:30:00.501Z,6.52
2022-08-17T22:32:27.798Z,6.39
2022-08-17T22:34:56.501Z,6.69
2022-08-17T22:37:26.737Z,6.95
2022-08-17T22:39:55.223Z,6.77
2022-08-17T22:42:22.508Z,7.33
2022-08-17T22:44:49.775Z,7.69
2022-08-17T22:47:17.179Z,7.75
2022-08-17T22:49:54.208Z,7.99
2022-08-17T22:52:21.872Z,12.88
2022-08-17T22:54:49.145Z,9.78
2022-08-17T22:57:18.977Z,13.56
2022-08-17T22:59:46.458Z,9.69
2022-08-17T23:02:13.755Z,7.57
2022-08-17T23:04:41.051Z,7.08
2022-08-17T23:07:08.327Z,6.85
2022-08-17T23:09:35.615Z,6.38
2022-08-17T23:12:02.896Z,6.16
2022-08-17T23:14:30.160Z,6.15
2022-08-17T23:16:57.463Z,6.31
2022-08-17T23:19:24.732Z,6.35
2022-08-17T23:21:52.024Z,6.00
2022-08-17T23:24:19.298Z,6.02
2022-08-17T23:26:46.574Z,5.98
2022-08-17T23:29:13.873Z,5.80
2022-08-17T23:31:41.140Z,5.71
2022-08-17T23:34:09.159Z,5.87
2022-08-17T23:36:36.586Z,5.57
2022-08-17T23:39:03.856Z,5.75
2022-08-17T23:41:31.163Z,5.63
2022-08-17T23:43:58.439Z,5.93
2022-08-17T23:46:25.724Z,6.00
2022-08-17T23:48:53.009Z,6.02
2022-08-17T23:51:20.294Z,6.62
2022-08-17T23:53:47.596Z,7.51
2022-08-17T23:56:14.879Z,7.92
2022-08-17T23:58:42.526Z,7.79
